sensor_id;sensor_type;location;lat;lon;timestamp;P1;durP1;ratioP1;P2;durP2;ratioP2
72354;SDS011;60314;55.040;73.076;2022-10-23T00:01:43;4.10;;;0.70;;
72354;SDS011;60314;55.040;73.076;2022-10-23T00:04:17;3.45;;;0.60;;
72354;SDS011;60314;55.040;73.076;2022-10-23T00:06:45;1.38;;;0.50;;
72354;SDS011;60314;55.040;73.076;2022-10-23T00:09:14;0.82;;;0.40;;
72354;SDS011;60314;55.040;73.076;2022-10-23T00:11:42;1.90;;;0.60;;
72354;SDS011;60314;55.040;73.076;2022-10-23T00:14:12;2.92;;;0.60;;
72354;SDS011;60314;55.040;73.076;2022-10-23T00:16:40;2.72;;;0.70;;
72354;SDS011;60314;55.040;73.076;2022-10-23T00:19:07;1.80;;;0.60;;
72354;SDS011;60314;55.040;73.076;2022-10-23T00:21:33;2.28;;;0.60;;
72354;SDS011;60314;55.040;73.076;2022-10-23T00:24:00;1.33;;;0.50;;
72354;SDS011;60314;55.040;73.076;2022-10-23T00:26:26;1.98;;;0.50;;
72354;SDS011;60314;55.040;73.076;2022-10-23T00:28:59;2.67;;;0.70;;
72354;SDS011;60314;55.040;73.076;2022-10-23T00:31:25;2.47;;;0.60;;
72354;SDS011;60314;55.040;73.076;2022-10-23T00:33:52;1.80;;;0.60;;
72354;SDS011;60314;55.040;73.076;2022-10-23T00:36:24;2.63;;;0.45;;
72354;SDS011;60314;55.040;73.076;2022-10-23T00:38:50;2.03;;;0.60;;
72354;SDS011;60314;55.040;73.076;2022-10-23T00:41:24;1.52;;;0.50;;
72354;SDS011;60314;55.040;73.076;2022-10-23T00:44:08;1.83;;;0.63;;
72354;SDS011;60314;55.040;73.076;2022-10-23T00:46:56;1.75;;;0.43;;
72354;SDS011;60314;55.040;73.076;2022-10-23T00:49:24;1.73;;;0.63;;
72354;SDS011;60314;55.040;73.076;2022-10-23T00:52:09;2.50;;;0.55;;
72354;SDS011;60314;55.040;73.076;2022-10-23T00:54:41;2.40;;;0.77;;
72354;SDS011;60314;55.040;73.076;2022-10-23T00:57:14;2.45;;;0.70;;
72354;SDS011;60314;55.040;73.076;2022-10-23T00:59:41;2.25;;;0.50;;
72354;SDS011;60314;55.040;73.076;2022-10-23T01:02:07;1.92;;;0.55;;
72354;SDS011;60314;55.040;73.076;2022-10-23T01:04:34;2.58;;;0.73;;
72354;SDS011;60314;55.040;73.076;2022-10-23T01:10:03;2.55;;;0.70;;
72354;SDS011;60314;55.040;73.076;2022-10-23T01:16:25;2.10;;;0.82;;
72354;SDS011;60314;55.040;73.076;2022-10-23T01:18:37;1.73;;;0.57;;
72354;SDS011;60314;55.040;73.076;2022-10-23T01:21:16;2.28;;;0.80;;
72354;SDS011;60314;55.040;73.076;2022-10-23T01:26:33;1.55;;;0.63;;
72354;SDS011;60314;55.040;73.076;2022-10-23T01:29:07;1.83;;;0.57;;
72354;SDS011;60314;55.040;73.076;2022-10-23T01:31:48;2.58;;;0.77;;
72354;SDS011;60314;55.040;73.076;2022-10-23T01:34:22;2.67;;;0.95;;
72354;SDS011;60314;55.040;73.076;2022-10-23T01:37:17;2.10;;;0.95;;
72354;SDS011;60314;55.040;73.076;2022-10-23T01:39:51;4.88;;;1.08;;
72354;SDS011;60314;55.040;73.076;2022-10-23T01:42:22;2.78;;;0.95;;
72354;SDS011;60314;55.040;73.076;2022-10-23T01:45:18;3.30;;;1.35;;
72354;SDS011;60314;55.040;73.076;2022-10-23T01:47:49;4.80;;;1.55;;
72354;SDS011;60314;55.040;73.076;2022-10-23T01:50:17;5.82;;;2.00;;
72354;SDS011;60314;55.040;73.076;2022-10-23T01:52:48;4.60;;;1.90;;
72354;SDS011;60314;55.040;73.076;2022-10-23T01:55:15;3.55;;;1.67;;
72354;SDS011;60314;55.040;73.076;2022-10-23T01:57:43;5.60;;;2.17;;
72354;SDS011;60314;55.040;73.076;2022-10-23T02:00:14;4.28;;;1.92;;
72354;SDS011;60314;55.040;73.076;2022-10-23T02:02:51;6.55;;;2.50;;
72354;SDS011;60314;55.040;73.076;2022-10-23T02:05:24;5.93;;;2.05;;
72354;SDS011;60314;55.040;73.076;2022-10-23T02:07:55;6.75;;;2.13;;
72354;SDS011;60314;55.040;73.076;2022-10-23T02:10:22;7.07;;;2.40;;
72354;SDS011;60314;55.040;73.076;2022-10-23T02:21:32;3.83;;;1.77;;
72354;SDS011;60314;55.040;73.076;2022-10-23T02:24:13;6.00;;;1.90;;
72354;SDS011;60314;55.040;73.076;2022-10-23T02:26:51;4.20;;;2.10;;
72354;SDS011;60314;55.040;73.076;2022-10-23T02:29:24;4.10;;;1.90;;
72354;SDS011;60314;55.040;73.076;2022-10-23T02:32:01;6.68;;;2.10;;
72354;SDS011;60314;55.040;73.076;2022-10-23T02:34:27;5.88;;;1.80;;
72354;SDS011;60314;55.040;73.076;2022-10-23T02:36:54;5.10;;;2.20;;
72354;SDS011;60314;55.040;73.076;2022-10-23T02:39:23;4.20;;;2.20;;
72354;SDS011;60314;55.040;73.076;2022-10-23T02:47:43;6.05;;;1.83;;
72354;SDS011;60314;55.040;73.076;2022-10-23T02:50:25;3.50;;;1.60;;
72354;SDS011;60314;55.040;73.076;2022-10-23T02:58:23;2.55;;;1.00;;
72354;SDS011;60314;55.040;73.076;2022-10-23T03:00:55;3.60;;;1.35;;
72354;SDS011;60314;55.040;73.076;2022-10-23T03:03:38;3.30;;;1.33;;
72354;SDS011;60314;55.040;73.076;2022-10-23T03:09:09;2.70;;;0.90;;
72354;SDS011;60314;55.040;73.076;2022-10-23T03:11:29;3.15;;;1.02;;
72354;SDS011;60314;55.040;73.076;2022-10-23T03:13:56;4.03;;;1.20;;
72354;SDS011;60314;55.040;73.076;2022-10-23T03:16:23;2.72;;;1.20;;
72354;SDS011;60314;55.040;73.076;2022-10-23T03:18:52;3.05;;;1.00;;
72354;SDS011;60314;55.040;73.076;2022-10-23T03:21:24;2.90;;;1.10;;
72354;SDS011;60314;55.040;73.076;2022-10-23T03:24:02;2.45;;;1.10;;
72354;SDS011;60314;55.040;73.076;2022-10-23T03:26:35;2.50;;;1.05;;
72354;SDS011;60314;55.040;73.076;2022-10-23T03:29:03;4.20;;;1.30;;
72354;SDS011;60314;55.040;73.076;2022-10-23T03:31:30;2.80;;;0.85;;
72354;SDS011;60314;55.040;73.076;2022-10-23T03:33:58;6.05;;;1.30;;
72354;SDS011;60314;55.040;73.076;2022-10-23T03:36:25;3.00;;;1.05;;
72354;SDS011;60314;55.040;73.076;2022-10-23T03:38:52;3.40;;;1.20;;
72354;SDS011;60314;55.040;73.076;2022-10-23T03:41:20;3.70;;;1.00;;
72354;SDS011;60314;55.040;73.076;2022-10-23T03:43:47;3.58;;;1.10;;
72354;SDS011;60314;55.040;73.076;2022-10-23T03:46:13;2.80;;;1.10;;
72354;SDS011;60314;55.040;73.076;2022-10-23T03:48:40;3.45;;;1.30;;
72354;SDS011;60314;55.040;73.076;2022-10-23T03:51:07;4.78;;;1.92;;
72354;SDS011;60314;55.040;73.076;2022-10-23T03:53:43;5.15;;;1.98;;
72354;SDS011;60314;55.040;73.076;2022-10-23T03:56:09;3.50;;;1.50;;
72354;SDS011;60314;55.040;73.076;2022-10-23T03:58:36;3.33;;;1.20;;
72354;SDS011;60314;55.040;73.076;2022-10-23T04:01:02;2.60;;;1.10;;
72354;SDS011;60314;55.040;73.076;2022-10-23T04:03:29;2.30;;;1.00;;
72354;SDS011;60314;55.040;73.076;2022-10-23T04:05:55;2.20;;;0.88;;
72354;SDS011;60314;55.040;73.076;2022-10-23T04:08:24;3.00;;;1.00;;
72354;SDS011;60314;55.040;73.076;2022-10-23T04:13:41;3.22;;;0.90;;
72354;SDS011;60314;55.040;73.076;2022-10-23T04:16:08;4.63;;;1.20;;
72354;SDS011;60314;55.040;73.076;2022-10-23T04:18:34;3.95;;;1.10;;
72354;SDS011;60314;55.040;73.076;2022-10-23T04:21:01;3.50;;;1.05;;
72354;SDS011;60314;55.040;73.076;2022-10-23T04:23:27;2.45;;;1.10;;
72354;SDS011;60314;55.040;73.076;2022-10-23T04:25:55;2.42;;;0.85;;
72354;SDS011;60314;55.040;73.076;2022-10-23T04:28:25;3.97;;;1.23;;
72354;SDS011;60314;55.040;73.076;2022-10-23T04:30:52;5.10;;;1.17;;
72354;SDS011;60314;55.040;73.076;2022-10-23T04:33:19;3.17;;;1.00;;
72354;SDS011;60314;55.040;73.076;2022-10-23T04:35:49;2.90;;;1.10;;
72354;SDS011;60314;55.040;73.076;2022-10-23T04:38:15;3.78;;;0.93;;
72354;SDS011;60314;55.040;73.076;2022-10-23T04:40:42;3.10;;;1.20;;
72354;SDS011;60314;55.040;73.076;2022-10-23T04:43:09;2.58;;;0.95;;
72354;SDS011;60314;55.040;73.076;2022-10-23T04:45:38;4.85;;;0.90;;
72354;SDS011;60314;55.040;73.076;2022-10-23T04:48:05;3.17;;;1.20;;
72354;SDS011;60314;55.040;73.076;2022-10-23T04:51:08;4.22;;;1.17;;
72354;SDS011;60314;55.040;73.076;2022-10-23T04:53:54;2.67;;;0.85;;
72354;SDS011;60314;55.040;73.076;2022-10-23T04:56:40;3.03;;;1.00;;
72354;SDS011;60314;55.040;73.076;2022-10-23T04:59:12;3.50;;;1.15;;
72354;SDS011;60314;55.040;73.076;2022-10-23T05:01:39;3.08;;;1.10;;
72354;SDS011;60314;55.040;73.076;2022-10-23T05:04:08;2.60;;;1.00;;
72354;SDS011;60314;55.040;73.076;2022-10-23T05:06:55;2.58;;;0.77;;
72354;SDS011;60314;55.040;73.076;2022-10-23T05:09:40;3.38;;;1.05;;
72354;SDS011;60314;55.040;73.076;2022-10-23T05:12:22;2.38;;;0.85;;
72354;SDS011;60314;55.040;73.076;2022-10-23T05:14:50;2.65;;;1.10;;
72354;SDS011;60314;55.040;73.076;2022-10-23T05:17:18;2.88;;;1.10;;
72354;SDS011;60314;55.040;73.076;2022-10-23T05:19:52;3.05;;;1.00;;
72354;SDS011;60314;55.040;73.076;2022-10-23T05:22:26;2.75;;;0.90;;
72354;SDS011;60314;55.040;73.076;2022-10-23T05:24:55;3.67;;;1.10;;
72354;SDS011;60314;55.040;73.076;2022-10-23T05:27:24;3.40;;;0.90;;
72354;SDS011;60314;55.040;73.076;2022-10-23T05:29:54;2.60;;;0.80;;
72354;SDS011;60314;55.040;73.076;2022-10-23T05:32:24;2.90;;;0.90;;
72354;SDS011;60314;55.040;73.076;2022-10-23T05:34:54;2.10;;;0.90;;
72354;SDS011;60314;55.040;73.076;2022-10-23T05:37:26;5.50;;;1.50;;
72354;SDS011;60314;55.040;73.076;2022-10-23T05:40:02;2.17;;;0.75;;
72354;SDS011;60314;55.040;73.076;2022-10-23T05:42:33;2.95;;;0.80;;
72354;SDS011;60314;55.040;73.076;2022-10-23T05:44:59;3.00;;;0.90;;
72354;SDS011;60314;55.040;73.076;2022-10-23T05:47:55;2.35;;;0.88;;
72354;SDS011;60314;55.040;73.076;2022-10-23T05:51:04;3.47;;;0.93;;
72354;SDS011;60314;55.040;73.076;2022-10-23T05:53:43;4.05;;;1.00;;
72354;SDS011;60314;55.040;73.076;2022-10-23T05:56:26;2.40;;;0.90;;
72354;SDS011;60314;55.040;73.076;2022-10-23T05:59:00;3.42;;;1.10;;
72354;SDS011;60314;55.040;73.076;2022-10-23T06:01:49;2.80;;;1.20;;
72354;SDS011;60314;55.040;73.076;2022-10-23T06:04:26;3.03;;;1.05;;
72354;SDS011;60314;55.040;73.076;2022-10-23T06:07:22;2.30;;;0.80;;
72354;SDS011;60314;55.040;73.076;2022-10-23T06:10:00;15.48;;;1.48;;
72354;SDS011;60314;55.040;73.076;2022-10-23T06:12:26;3.90;;;1.00;;
72354;SDS011;60314;55.040;73.076;2022-10-23T06:14:53;2.40;;;0.80;;
72354;SDS011;60314;55.040;73.076;2022-10-23T06:17:26;2.15;;;0.80;;
72354;SDS011;60314;55.040;73.076;2022-10-23T06:19:53;2.92;;;1.15;;
72354;SDS011;60314;55.040;73.076;2022-10-23T06:22:27;3.45;;;0.95;;
72354;SDS011;60314;55.040;73.076;2022-10-23T06:25:10;2.20;;;0.90;;
72354;SDS011;60314;55.040;73.076;2022-10-23T06:27:46;2.15;;;0.93;;
72354;SDS011;60314;55.040;73.076;2022-10-23T06:30:13;2.83;;;1.13;;
72354;SDS011;60314;55.040;73.076;2022-10-23T06:32:40;2.72;;;0.93;;
72354;SDS011;60314;55.040;73.076;2022-10-23T06:35:15;2.83;;;1.10;;
72354;SDS011;60314;55.040;73.076;2022-10-23T06:37:42;2.53;;;1.00;;
72354;SDS011;60314;55.040;73.076;2022-10-23T06:40:17;2.45;;;0.98;;
72354;SDS011;60314;55.040;73.076;2022-10-23T06:43:02;2.75;;;1.13;;
72354;SDS011;60314;55.040;73.076;2022-10-23T06:45:55;3.20;;;1.20;;
72354;SDS011;60314;55.040;73.076;2022-10-23T06:48:52;5.88;;;1.00;;
72354;SDS011;60314;55.040;73.076;2022-10-23T06:51:31;2.80;;;1.08;;
72354;SDS011;60314;55.040;73.076;2022-10-23T06:53:58;2.38;;;0.90;;
72354;SDS011;60314;55.040;73.076;2022-10-23T06:56:46;2.90;;;1.00;;
72354;SDS011;60314;55.040;73.076;2022-10-23T06:59:13;3.13;;;1.10;;
72354;SDS011;60314;55.040;73.076;2022-10-23T07:01:40;2.65;;;1.02;;
72354;SDS011;60314;55.040;73.076;2022-10-23T07:04:08;2.58;;;0.90;;
72354;SDS011;60314;55.040;73.076;2022-10-23T07:06:35;3.15;;;1.20;;
72354;SDS011;60314;55.040;73.076;2022-10-23T07:09:02;2.50;;;0.85;;
72354;SDS011;60314;55.040;73.076;2022-10-23T07:11:49;3.08;;;0.90;;
72354;SDS011;60314;55.040;73.076;2022-10-23T07:14:48;3.20;;;1.20;;
72354;SDS011;60314;55.040;73.076;2022-10-23T07:17:15;3.88;;;1.20;;
72354;SDS011;60314;55.040;73.076;2022-10-23T07:19:42;3.20;;;1.20;;
72354;SDS011;60314;55.040;73.076;2022-10-23T07:22:11;3.08;;;1.20;;
72354;SDS011;60314;55.040;73.076;2022-10-23T07:24:48;2.85;;;1.23;;
72354;SDS011;60314;55.040;73.076;2022-10-23T07:27:27;2.80;;;0.98;;
72354;SDS011;60314;55.040;73.076;2022-10-23T07:29:56;3.55;;;1.20;;
72354;SDS011;60314;55.040;73.076;2022-10-23T07:32:23;3.15;;;1.30;;
72354;SDS011;60314;55.040;73.076;2022-10-23T07:35:11;3.42;;;1.50;;
72354;SDS011;60314;55.040;73.076;2022-10-23T07:37:45;3.53;;;1.45;;
72354;SDS011;60314;55.040;73.076;2022-10-23T07:40:12;3.53;;;1.27;;
72354;SDS011;60314;55.040;73.076;2022-10-23T07:42:43;6.00;;;1.27;;
72354;SDS011;60314;55.040;73.076;2022-10-23T07:45:10;2.70;;;1.20;;
72354;SDS011;60314;55.040;73.076;2022-10-23T07:47:41;3.85;;;1.60;;
72354;SDS011;60314;55.040;73.076;2022-10-23T07:50:10;2.83;;;1.17;;
72354;SDS011;60314;55.040;73.076;2022-10-23T07:52:36;3.30;;;1.30;;
72354;SDS011;60314;55.040;73.076;2022-10-23T07:55:10;4.18;;;1.20;;
72354;SDS011;60314;55.040;73.076;2022-10-23T07:57:41;3.97;;;1.60;;
72354;SDS011;60314;55.040;73.076;2022-10-23T08:00:30;3.45;;;1.38;;
72354;SDS011;60314;55.040;73.076;2022-10-23T08:03:07;2.72;;;0.93;;
72354;SDS011;60314;55.040;73.076;2022-10-23T08:05:46;3.35;;;1.23;;
72354;SDS011;60314;55.040;73.076;2022-10-23T08:08:13;2.88;;;1.10;;
72354;SDS011;60314;55.040;73.076;2022-10-23T08:10:44;4.10;;;1.25;;
72354;SDS011;60314;55.040;73.076;2022-10-23T08:13:16;3.40;;;1.20;;
72354;SDS011;60314;55.040;73.076;2022-10-23T08:16:10;2.60;;;0.93;;
72354;SDS011;60314;55.040;73.076;2022-10-23T08:19:06;2.40;;;0.82;;
72354;SDS011;60314;55.040;73.076;2022-10-23T08:21:35;3.33;;;0.90;;
72354;SDS011;60314;55.040;73.076;2022-10-23T08:24:02;3.70;;;1.33;;
72354;SDS011;60314;55.040;73.076;2022-10-23T08:28:17;2.65;;;0.90;;
72354;SDS011;60314;55.040;73.076;2022-10-23T08:31:04;3.42;;;0.90;;
72354;SDS011;60314;55.040;73.076;2022-10-23T08:33:33;2.65;;;0.95;;
72354;SDS011;60314;55.040;73.076;2022-10-23T08:36:05;4.00;;;1.17;;
72354;SDS011;60314;55.040;73.076;2022-10-23T08:38:54;2.45;;;0.90;;
72354;SDS011;60314;55.040;73.076;2022-10-23T08:49:52;3.10;;;1.20;;
72354;SDS011;60314;55.040;73.076;2022-10-23T08:52:40;6.03;;;1.08;;
72354;SDS011;60314;55.040;73.076;2022-10-23T08:55:25;3.20;;;1.20;;
72354;SDS011;60314;55.040;73.076;2022-10-23T09:01:22;3.10;;;1.10;;
72354;SDS011;60314;55.040;73.076;2022-10-23T09:03:55;3.15;;;1.10;;
72354;SDS011;60314;55.040;73.076;2022-10-23T09:12:13;2.97;;;1.30;;
72354;SDS011;60314;55.040;73.076;2022-10-23T09:17:56;4.88;;;1.90;;
72354;SDS011;60314;55.040;73.076;2022-10-23T09:22:57;7.15;;;1.98;;
72354;SDS011;60314;55.040;73.076;2022-10-23T09:25:36;4.63;;;1.92;;
72354;SDS011;60314;55.040;73.076;2022-10-23T09:28:04;5.00;;;2.20;;
72354;SDS011;60314;55.040;73.076;2022-10-23T09:30:41;4.60;;;2.20;;
72354;SDS011;60314;55.040;73.076;2022-10-23T09:33:14;5.63;;;2.55;;
72354;SDS011;60314;55.040;73.076;2022-10-23T09:36:00;4.00;;;2.72;;
72354;SDS011;60314;55.040;73.076;2022-10-23T09:40:59;5.40;;;3.17;;
72354;SDS011;60314;55.040;73.076;2022-10-23T09:46:03;5.25;;;3.30;;
72354;SDS011;60314;55.040;73.076;2022-10-23T09:48:33;7.03;;;3.40;;
72354;SDS011;60314;55.040;73.076;2022-10-23T09:51:01;7.30;;;3.65;;
72354;SDS011;60314;55.040;73.076;2022-10-23T09:53:39;7.32;;;3.92;;
72354;SDS011;60314;55.040;73.076;2022-10-23T09:56:27;6.72;;;4.10;;
72354;SDS011;60314;55.040;73.076;2022-10-23T10:01:45;8.68;;;4.63;;
72354;SDS011;60314;55.040;73.076;2022-10-23T10:04:33;10.88;;;5.72;;
72354;SDS011;60314;55.040;73.076;2022-10-23T10:07:05;11.88;;;4.93;;
72354;SDS011;60314;55.040;73.076;2022-10-23T10:09:58;8.80;;;6.03;;
72354;SDS011;60314;55.040;73.076;2022-10-23T10:18:02;9.57;;;6.57;;
72354;SDS011;60314;55.040;73.076;2022-10-23T10:20:48;8.65;;;6.05;;
72354;SDS011;60314;55.040;73.076;2022-10-23T10:23:44;9.82;;;5.50;;
72354;SDS011;60314;55.040;73.076;2022-10-23T10:31:35;10.48;;;6.22;;
72354;SDS011;60314;55.040;73.076;2022-10-23T10:34:39;10.00;;;6.32;;
72354;SDS011;60314;55.040;73.076;2022-10-23T10:37:14;8.98;;;6.00;;
72354;SDS011;60314;55.040;73.076;2022-10-23T10:39:59;8.70;;;5.95;;
72354;SDS011;60314;55.040;73.076;2022-10-23T10:42:54;9.48;;;5.93;;
72354;SDS011;60314;55.040;73.076;2022-10-23T10:54:32;7.90;;;5.30;;
72354;SDS011;60314;55.040;73.076;2022-10-23T10:57:23;8.45;;;5.20;;
72354;SDS011;60314;55.040;73.076;2022-10-23T11:00:05;8.35;;;4.85;;
72354;SDS011;60314;55.040;73.076;2022-10-23T11:05:17;8.10;;;4.90;;
72354;SDS011;60314;55.040;73.076;2022-10-23T11:08:20;8.35;;;5.32;;
72354;SDS011;60314;55.040;73.076;2022-10-23T11:11:27;9.43;;;5.75;;
72354;SDS011;60314;55.040;73.076;2022-10-23T11:14:16;9.32;;;4.60;;
72354;SDS011;60314;55.040;73.076;2022-10-23T11:16:53;8.85;;;4.95;;
72354;SDS011;60314;55.040;73.076;2022-10-23T11:27:36;7.65;;;4.60;;
72354;SDS011;60314;55.040;73.076;2022-10-23T11:39:16;7.07;;;4.18;;
72354;SDS011;60314;55.040;73.076;2022-10-23T11:42:10;7.38;;;4.32;;
72354;SDS011;60314;55.040;73.076;2022-10-23T11:47:32;8.95;;;4.72;;
72354;SDS011;60314;55.040;73.076;2022-10-23T11:55:17;7.72;;;4.53;;
72354;SDS011;60314;55.040;73.076;2022-10-23T12:00:52;5.25;;;3.22;;
72354;SDS011;60314;55.040;73.076;2022-10-23T12:03:40;5.20;;;3.08;;
72354;SDS011;60314;55.040;73.076;2022-10-23T12:06:20;4.75;;;2.80;;
72354;SDS011;60314;55.040;73.076;2022-10-23T12:14:34;4.30;;;2.28;;
72354;SDS011;60314;55.040;73.076;2022-10-23T12:19:52;5.53;;;2.70;;
72354;SDS011;60314;55.040;73.076;2022-10-23T12:25:40;6.07;;;2.55;;
72354;SDS011;60314;55.040;73.076;2022-10-23T12:31:35;6.25;;;2.90;;
72354;SDS011;60314;55.040;73.076;2022-10-23T12:34:38;5.05;;;2.60;;
72354;SDS011;60314;55.040;73.076;2022-10-23T12:40:14;5.40;;;2.45;;
72354;SDS011;60314;55.040;73.076;2022-10-23T12:42:40;5.50;;;2.90;;
72354;SDS011;60314;55.040;73.076;2022-10-23T12:45:18;7.75;;;2.60;;
72354;SDS011;60314;55.040;73.076;2022-10-23T12:47:49;5.47;;;3.00;;
72354;SDS011;60314;55.040;73.076;2022-10-23T12:50:27;5.97;;;2.58;;
72354;SDS011;60314;55.040;73.076;2022-10-23T12:52:57;5.90;;;2.45;;
72354;SDS011;60314;55.040;73.076;2022-10-23T12:58:28;4.95;;;2.72;;
72354;SDS011;60314;55.040;73.076;2022-10-23T13:01:05;6.32;;;2.67;;
72354;SDS011;60314;55.040;73.076;2022-10-23T13:03:33;6.97;;;2.58;;
72354;SDS011;60314;55.040;73.076;2022-10-23T13:06:00;4.60;;;2.45;;
72354;SDS011;60314;55.040;73.076;2022-10-23T13:08:46;5.35;;;2.63;;
72354;SDS011;60314;55.040;73.076;2022-10-23T13:11:39;9.13;;;2.85;;
72354;SDS011;60314;55.040;73.076;2022-10-23T13:14:23;5.60;;;2.83;;
72354;SDS011;60314;55.040;73.076;2022-10-23T13:17:07;5.73;;;3.03;;
72354;SDS011;60314;55.040;73.076;2022-10-23T13:19:36;5.00;;;2.70;;
72354;SDS011;60314;55.040;73.076;2022-10-23T13:22:03;5.78;;;3.28;;
72354;SDS011;60314;55.040;73.076;2022-10-23T13:24:46;6.82;;;3.28;;
72354;SDS011;60314;55.040;73.076;2022-10-23T13:27:30;7.10;;;3.55;;
72354;SDS011;60314;55.040;73.076;2022-10-23T13:30:30;6.63;;;3.30;;
72354;SDS011;60314;55.040;73.076;2022-10-23T13:32:57;5.75;;;3.00;;
72354;SDS011;60314;55.040;73.076;2022-10-23T13:35:25;6.30;;;3.00;;
72354;SDS011;60314;55.040;73.076;2022-10-23T13:38:06;7.65;;;3.20;;
72354;SDS011;60314;55.040;73.076;2022-10-23T13:40:38;5.05;;;2.97;;
72354;SDS011;60314;55.040;73.076;2022-10-23T13:43:07;4.70;;;2.83;;
72354;SDS011;60314;55.040;73.076;2022-10-23T13:45:43;8.27;;;2.95;;
72354;SDS011;60314;55.040;73.076;2022-10-23T13:48:11;12.05;;;3.28;;
72354;SDS011;60314;55.040;73.076;2022-10-23T13:50:40;7.22;;;3.00;;
72354;SDS011;60314;55.040;73.076;2022-10-23T13:53:12;7.97;;;3.13;;
72354;SDS011;60314;55.040;73.076;2022-10-23T13:55:42;7.28;;;3.00;;
72354;SDS011;60314;55.040;73.076;2022-10-23T14:00:37;5.18;;;2.50;;
72354;SDS011;60314;55.040;73.076;2022-10-23T14:03:05;6.07;;;2.75;;
72354;SDS011;60314;55.040;73.076;2022-10-23T14:05:31;7.53;;;3.03;;
72354;SDS011;60314;55.040;73.076;2022-10-23T14:07:58;5.53;;;2.80;;
72354;SDS011;60314;55.040;73.076;2022-10-23T14:10:24;6.60;;;2.60;;
72354;SDS011;60314;55.040;73.076;2022-10-23T14:12:54;5.70;;;2.85;;
72354;SDS011;60314;55.040;73.076;2022-10-23T14:15:21;6.07;;;3.05;;
72354;SDS011;60314;55.040;73.076;2022-10-23T14:17:57;7.03;;;3.55;;
72354;SDS011;60314;55.040;73.076;2022-10-23T14:20:34;5.63;;;2.90;;
72354;SDS011;60314;55.040;73.076;2022-10-23T14:23:02;7.00;;;2.90;;
72354;SDS011;60314;55.040;73.076;2022-10-23T14:25:29;8.45;;;3.17;;
72354;SDS011;60314;55.040;73.076;2022-10-23T14:27:56;6.20;;;3.00;;
72354;SDS011;60314;55.040;73.076;2022-10-23T14:30:22;5.45;;;2.92;;
72354;SDS011;60314;55.040;73.076;2022-10-23T14:32:49;4.80;;;2.80;;
72354;SDS011;60314;55.040;73.076;2022-10-23T14:35:17;6.03;;;3.03;;
72354;SDS011;60314;55.040;73.076;2022-10-23T14:37:43;5.00;;;2.85;;
72354;SDS011;60314;55.040;73.076;2022-10-23T14:40:10;7.90;;;4.07;;
72354;SDS011;60314;55.040;73.076;2022-10-23T14:42:37;6.50;;;3.55;;
72354;SDS011;60314;55.040;73.076;2022-10-23T14:45:04;15.10;;;4.03;;
72354;SDS011;60314;55.040;73.076;2022-10-23T14:47:31;8.93;;;4.40;;
72354;SDS011;60314;55.040;73.076;2022-10-23T14:50:02;9.38;;;4.60;;
72354;SDS011;60314;55.040;73.076;2022-10-23T14:52:30;7.25;;;3.90;;
72354;SDS011;60314;55.040;73.076;2022-10-23T14:54:57;10.25;;;5.18;;
72354;SDS011;60314;55.040;73.076;2022-10-23T14:57:23;8.25;;;5.28;;
72354;SDS011;60314;55.040;73.076;2022-10-23T14:59:50;10.38;;;4.97;;
72354;SDS011;60314;55.040;73.076;2022-10-23T15:02:16;11.63;;;5.30;;
72354;SDS011;60314;55.040;73.076;2022-10-23T15:04:43;9.75;;;5.50;;
72354;SDS011;60314;55.040;73.076;2022-10-23T15:07:13;8.20;;;4.88;;
72354;SDS011;60314;55.040;73.076;2022-10-23T15:09:40;12.65;;;5.88;;
72354;SDS011;60314;55.040;73.076;2022-10-23T15:12:06;10.13;;;5.38;;
72354;SDS011;60314;55.040;73.076;2022-10-23T15:14:33;9.20;;;5.78;;
72354;SDS011;60314;55.040;73.076;2022-10-23T15:17:00;9.43;;;5.70;;
72354;SDS011;60314;55.040;73.076;2022-10-23T15:19:37;9.30;;;5.53;;
72354;SDS011;60314;55.040;73.076;2022-10-23T15:22:04;9.13;;;5.45;;
72354;SDS011;60314;55.040;73.076;2022-10-23T15:24:31;9.70;;;5.88;;
72354;SDS011;60314;55.040;73.076;2022-10-23T15:27:04;13.90;;;6.50;;
72354;SDS011;60314;55.040;73.076;2022-10-23T15:29:31;13.45;;;6.18;;
72354;SDS011;60314;55.040;73.076;2022-10-23T15:31:58;13.23;;;6.30;;
72354;SDS011;60314;55.040;73.076;2022-10-23T15:34:27;12.48;;;6.82;;
72354;SDS011;60314;55.040;73.076;2022-10-23T15:36:55;12.57;;;6.45;;
72354;SDS011;60314;55.040;73.076;2022-10-23T15:39:23;10.60;;;6.15;;
72354;SDS011;60314;55.040;73.076;2022-10-23T15:41:54;14.87;;;6.13;;
72354;SDS011;60314;55.040;73.076;2022-10-23T15:44:23;12.80;;;6.50;;
72354;SDS011;60314;55.040;73.076;2022-10-23T15:47:01;11.32;;;6.22;;
72354;SDS011;60314;55.040;73.076;2022-10-23T15:49:28;12.93;;;5.70;;
72354;SDS011;60314;55.040;73.076;2022-10-23T15:51:55;12.77;;;5.97;;
72354;SDS011;60314;55.040;73.076;2022-10-23T15:54:22;9.50;;;5.13;;
72354;SDS011;60314;55.040;73.076;2022-10-23T15:56:50;11.40;;;5.50;;
72354;SDS011;60314;55.040;73.076;2022-10-23T15:59:18;9.93;;;4.55;;
72354;SDS011;60314;55.040;73.076;2022-10-23T16:01:47;9.30;;;5.30;;
72354;SDS011;60314;55.040;73.076;2022-10-23T16:04:14;9.82;;;4.90;;
72354;SDS011;60314;55.040;73.076;2022-10-23T16:06:42;7.90;;;5.13;;
72354;SDS011;60314;55.040;73.076;2022-10-23T16:09:09;12.40;;;5.28;;
72354;SDS011;60314;55.040;73.076;2022-10-23T16:11:37;10.07;;;5.47;;
72354;SDS011;60314;55.040;73.076;2022-10-23T16:14:06;11.52;;;4.80;;
72354;SDS011;60314;55.040;73.076;2022-10-23T16:16:36;9.68;;;4.65;;
72354;SDS011;60314;55.040;73.076;2022-10-23T16:19:03;12.30;;;4.25;;
72354;SDS011;60314;55.040;73.076;2022-10-23T16:21:31;11.15;;;4.60;;
72354;SDS011;60314;55.040;73.076;2022-10-23T16:24:00;8.65;;;4.18;;
72354;SDS011;60314;55.040;73.076;2022-10-23T16:26:30;7.50;;;4.15;;
72354;SDS011;60314;55.040;73.076;2022-10-23T16:28:57;9.13;;;4.65;;
72354;SDS011;60314;55.040;73.076;2022-10-23T16:31:26;7.95;;;4.10;;
72354;SDS011;60314;55.040;73.076;2022-10-23T16:33:58;7.40;;;4.53;;
72354;SDS011;60314;55.040;73.076;2022-10-23T16:36:27;9.77;;;4.93;;
72354;SDS011;60314;55.040;73.076;2022-10-23T16:39:08;8.15;;;4.40;;
72354;SDS011;60314;55.040;73.076;2022-10-23T16:41:53;11.00;;;4.93;;
72354;SDS011;60314;55.040;73.076;2022-10-23T16:44:23;8.57;;;4.38;;
72354;SDS011;60314;55.040;73.076;2022-10-23T16:47:02;8.43;;;5.00;;
72354;SDS011;60314;55.040;73.076;2022-10-23T16:49:29;8.70;;;5.40;;
72354;SDS011;60314;55.040;73.076;2022-10-23T16:52:01;8.95;;;4.45;;
72354;SDS011;60314;55.040;73.076;2022-10-23T16:54:28;8.88;;;4.47;;
72354;SDS011;60314;55.040;73.076;2022-10-23T16:56:54;7.43;;;4.55;;
72354;SDS011;60314;55.040;73.076;2022-10-23T16:59:21;12.98;;;4.47;;
72354;SDS011;60314;55.040;73.076;2022-10-23T17:01:48;10.50;;;5.00;;
72354;SDS011;60314;55.040;73.076;2022-10-23T17:04:14;8.25;;;4.28;;
72354;SDS011;60314;55.040;73.076;2022-10-23T17:06:47;6.70;;;3.78;;
72354;SDS011;60314;55.040;73.076;2022-10-23T17:09:13;7.82;;;4.00;;
72354;SDS011;60314;55.040;73.076;2022-10-23T17:11:40;7.15;;;4.15;;
72354;SDS011;60314;55.040;73.076;2022-10-23T17:14:16;10.80;;;4.13;;
72354;SDS011;60314;55.040;73.076;2022-10-23T17:16:46;6.75;;;3.55;;
72354;SDS011;60314;55.040;73.076;2022-10-23T17:19:17;7.20;;;3.70;;
72354;SDS011;60314;55.040;73.076;2022-10-23T17:21:45;6.53;;;3.47;;
72354;SDS011;60314;55.040;73.076;2022-10-23T17:24:11;7.53;;;3.47;;
72354;SDS011;60314;55.040;73.076;2022-10-23T17:26:39;9.75;;;3.80;;
72354;SDS011;60314;55.040;73.076;2022-10-23T17:29:06;6.22;;;3.33;;
72354;SDS011;60314;55.040;73.076;2022-10-23T17:31:53;7.85;;;3.53;;